sensor_id;sensor_type;location;lat;lon;timestamp;pressure;altitude;pressure_sealevel;temperature
12409;BMP180;6268;48.188;17.134;2023-04-25T00:00:11;49646.84;;;-134.68
12409;BMP180;6268;48.188;17.134;2023-04-25T00:02:40;49648.78;;;-134.68
12409;BMP180;6268;48.188;17.134;2023-04-25T00:05:10;49646.84;;;-134.68
12409;BMP180;6268;48.188;17.134;2023-04-25T00:07:39;49646.84;;;-134.68
12409;BMP180;6268;48.188;17.134;2023-04-25T00:10:10;49648.78;;;-134.68
12409;BMP180;6268;48.188;17.134;2023-04-25T00:12:41;49646.84;;;-134.68
12409;BMP180;6268;48.188;17.134;2023-04-25T00:15:11;49648.78;;;-134.68
12409;BMP180;6268;48.188;17.134;2023-04-25T00:17:40;49646.84;;;-134.68
12409;BMP180;6268;48.188;17.134;2023-04-25T00:20:11;49648.78;;;-134.68
12409;BMP180;6268;48.188;17.134;2023-04-25T00:22:40;49646.84;;;-134.68
12409;BMP180;6268;48.188;17.134;2023-04-25T00:25:09;49648.78;;;-134.68
12409;BMP180;6268;48.188;17.134;2023-04-25T00:27:38;49648.78;;;-134.68
12409;BMP180;6268;48.188;17.134;2023-04-25T00:30:12;49652.66;;;-134.68
12409;BMP180;6268;48.188;17.134;2023-04-25T00:32:41;49648.78;;;-134.68
12409;BMP180;6268;48.188;17.134;2023-04-25T00:35:10;49648.78;;;-134.68
12409;BMP180;6268;48.188;17.134;2023-04-25T00:37:39;49650.72;;;-134.68
12409;BMP180;6268;48.188;17.134;2023-04-25T00:40:09;49648.78;;;-134.68
12409;BMP180;6268;48.188;17.134;2023-04-25T00:42:39;49648.78;;;-134.68
12409;BMP180;6268;48.188;17.134;2023-04-25T00:45:14;49648.78;;;-134.68
12409;BMP180;6268;48.188;17.134;2023-04-25T00:47:43;49646.84;;;-134.68
12409;BMP180;6268;48.188;17.134;2023-04-25T00:50:13;49648.78;;;-134.68
12409;BMP180;6268;48.188;17.134;2023-04-25T00:52:44;49650.72;;;-134.68
12409;BMP180;6268;48.188;17.134;2023-04-25T00:55:14;49646.84;;;-134.68
12409;BMP180;6268;48.188;17.134;2023-04-25T00:57:43;49648.78;;;-134.68
12409;BMP180;6268;48.188;17.134;2023-04-25T01:00:14;49650.72;;;-134.68
12409;BMP180;6268;48.188;17.134;2023-04-25T01:02:44;49648.78;;;-134.68
12409;BMP180;6268;48.188;17.134;2023-04-25T01:05:13;49646.84;;;-134.68
12409;BMP180;6268;48.188;17.134;2023-04-25T01:07:42;49646.84;;;-134.68
12409;BMP180;6268;48.188;17.134;2023-04-25T01:10:12;49648.78;;;-134.68
12409;BMP180;6268;48.188;17.134;2023-04-25T01:12:41;49646.84;;;-134.68
12409;BMP180;6268;48.188;17.134;2023-04-25T01:15:10;49642.94;;;-134.68
12409;BMP180;6268;48.188;17.134;2023-04-25T01:17:41;49650.72;;;-134.68
12409;BMP180;6268;48.188;17.134;2023-04-25T01:20:13;49646.84;;;-134.68
12409;BMP180;6268;48.188;17.134;2023-04-25T01:22:44;49648.78;;;-134.68
12409;BMP180;6268;48.188;17.134;2023-04-25T01:25:15;49648.78;;;-134.68
12409;BMP180;6268;48.188;17.134;2023-04-25T01:27:43;49650.72;;;-134.68
12409;BMP180;6268;48.188;17.134;2023-04-25T01:30:13;49646.84;;;-134.68
12409;BMP180;6268;48.188;17.134;2023-04-25T01:32:43;49648.78;;;-134.68
12409;BMP180;6268;48.188;17.134;2023-04-25T01:35:12;49648.78;;;-134.68
12409;BMP180;6268;48.188;17.134;2023-04-25T01:37:42;49648.78;;;-134.68
12409;BMP180;6268;48.188;17.134;2023-04-25T01:40:13;49648.78;;;-134.68
12409;BMP180;6268;48.188;17.134;2023-04-25T01:42:43;49646.84;;;-134.68
12409;BMP180;6268;48.188;17.134;2023-04-25T01:45:12;49648.78;;;-134.68
12409;BMP180;6268;48.188;17.134;2023-04-25T01:47:41;49648.78;;;-134.68
12409;BMP180;6268;48.188;17.134;2023-04-25T01:50:14;49650.72;;;-134.68
12409;BMP180;6268;48.188;17.134;2023-04-25T01:52:44;49648.78;;;-134.68
12409;BMP180;6268;48.188;17.134;2023-04-25T01:55:14;49650.72;;;-134.68
12409;BMP180;6268;48.188;17.134;2023-04-25T01:57:42;49646.84;;;-134.68
12409;BMP180;6268;48.188;17.134;2023-04-25T02:00:12;49644.88;;;-134.68
12409;BMP180;6268;48.188;17.134;2023-04-25T02:02:41;49648.78;;;-134.68
12409;BMP180;6268;48.188;17.134;2023-04-25T02:05:10;49650.72;;;-134.68
12409;BMP180;6268;48.188;17.134;2023-04-25T02:07:39;49648.78;;;-134.68
12409;BMP180;6268;48.188;17.134;2023-04-25T02:10:09;49654.59;;;-134.68
12409;BMP180;6268;48.188;17.134;2023-04-25T02:12:39;49648.78;;;-134.68
12409;BMP180;6268;48.188;17.134;2023-04-25T02:15:09;49648.78;;;-134.68
12409;BMP180;6268;48.188;17.134;2023-04-25T02:17:38;49646.84;;;-134.68
12409;BMP180;6268;48.188;17.134;2023-04-25T02:20:07;49644.88;;;-134.68
12409;BMP180;6268;48.188;17.134;2023-04-25T02:22:37;49646.84;;;-134.68
12409;BMP180;6268;48.188;17.134;2023-04-25T02:25:08;49646.84;;;-134.68
12409;BMP180;6268;48.188;17.134;2023-04-25T02:27:39;49652.66;;;-134.68
12409;BMP180;6268;48.188;17.134;2023-04-25T02:30:09;49650.72;;;-134.68
12409;BMP180;6268;48.188;17.134;2023-04-25T02:32:38;49644.88;;;-134.68
12409;BMP180;6268;48.188;17.134;2023-04-25T02:35:08;49646.84;;;-134.68
12409;BMP180;6268;48.188;17.134;2023-04-25T02:37:38;49650.72;;;-134.68
12409;BMP180;6268;48.188;17.134;2023-04-25T02:40:09;49646.84;;;-134.68
12409;BMP180;6268;48.188;17.134;2023-04-25T02:42:39;49646.84;;;-134.68
12409;BMP180;6268;48.188;17.134;2023-04-25T02:45:09;49646.84;;;-134.68
12409;BMP180;6268;48.188;17.134;2023-04-25T02:47:38;49648.78;;;-134.68
12409;BMP180;6268;48.188;17.134;2023-04-25T02:50:08;49646.84;;;-134.68
12409;BMP180;6268;48.188;17.134;2023-04-25T02:52:36;49644.88;;;-134.68
12409;BMP180;6268;48.188;17.134;2023-04-25T02:55:06;49646.84;;;-134.68
12409;BMP180;6268;48.188;17.134;2023-04-25T02:57:35;49648.78;;;-134.68
12409;BMP180;6268;48.188;17.134;2023-04-25T03:00:07;49646.84;;;-134.68
12409;BMP180;6268;48.188;17.134;2023-04-25T03:02:36;49650.72;;;-134.68
12409;BMP180;6268;48.188;17.134;2023-04-25T03:05:05;49650.72;;;-134.68
12409;BMP180;6268;48.188;17.134;2023-04-25T03:07:34;49648.78;;;-134.68
12409;BMP180;6268;48.188;17.134;2023-04-25T03:10:04;49646.84;;;-134.68
12409;BMP180;6268;48.188;17.134;2023-04-25T03:12:33;49646.84;;;-134.68
12409;BMP180;6268;48.188;17.134;2023-04-25T03:15:02;49646.84;;;-134.68
12409;BMP180;6268;48.188;17.134;2023-04-25T03:17:32;49646.84;;;-134.68
12409;BMP180;6268;48.188;17.134;2023-04-25T03:20:01;49646.84;;;-134.68
12409;BMP180;6268;48.188;17.134;2023-04-25T03:22:32;49646.84;;;-134.68
12409;BMP180;6268;48.188;17.134;2023-04-25T03:25:01;49648.78;;;-134.68
12409;BMP180;6268;48.188;17.134;2023-04-25T03:27:30;49646.84;;;-134.68
12409;BMP180;6268;48.188;17.134;2023-04-25T03:29:58;49646.84;;;-134.68
12409;BMP180;6268;48.188;17.134;2023-04-25T03:32:27;49648.78;;;-134.68
12409;BMP180;6268;48.188;17.134;2023-04-25T03:34:57;49648.78;;;-134.68
12409;BMP180;6268;48.188;17.134;2023-04-25T03:37:26;49648.78;;;-134.68
12409;BMP180;6268;48.188;17.134;2023-04-25T03:39:55;49646.84;;;-134.68
12409;BMP180;6268;48.188;17.134;2023-04-25T03:42:24;49650.72;;;-134.68
12409;BMP180;6268;48.188;17.134;2023-04-25T03:44:52;49650.72;;;-134.68
12409;BMP180;6268;48.188;17.134;2023-04-25T03:47:21;49646.84;;;-134.68
12409;BMP180;6268;48.188;17.134;2023-04-25T03:49:50;49648.78;;;-134.68
12409;BMP180;6268;48.188;17.134;2023-04-25T03:52:20;49650.72;;;-134.68
12409;BMP180;6268;48.188;17.134;2023-04-25T03:54:49;49650.72;;;-134.68
12409;BMP180;6268;48.188;17.134;2023-04-25T03:57:17;49646.84;;;-134.68
12409;BMP180;6268;48.188;17.134;2023-04-25T03:59:46;49646.84;;;-134.68
12409;BMP180;6268;48.188;17.134;2023-04-25T04:02:15;49650.72;;;-134.68
12409;BMP180;6268;48.188;17.134;2023-04-25T04:04:44;49650.72;;;-134.68
12409;BMP180;6268;48.188;17.134;2023-04-25T04:07:14;49648.78;;;-134.68
12409;BMP180;6268;48.188;17.134;2023-04-25T04:09:44;49650.72;;;-134.68
12409;BMP180;6268;48.188;17.134;2023-04-25T04:12:13;49650.72;;;-134.68
12409;BMP180;6268;48.188;17.134;2023-04-25T04:14:41;49648.78;;;-134.68
12409;BMP180;6268;48.188;17.134;2023-04-25T04:17:10;49648.78;;;-134.68
12409;BMP180;6268;48.188;17.134;2023-04-25T04:19:39;49650.72;;;-134.68
12409;BMP180;6268;48.188;17.134;2023-04-25T04:22:09;49646.84;;;-134.68
12409;BMP180;6268;48.188;17.134;2023-04-25T04:24:37;49646.84;;;-134.68
12409;BMP180;6268;48.188;17.134;2023-04-25T04:27:07;49648.78;;;-134.68
12409;BMP180;6268;48.188;17.134;2023-04-25T04:29:36;49648.78;;;-134.68
12409;BMP180;6268;48.188;17.134;2023-04-25T04:32:05;49650.72;;;-134.68
12409;BMP180;6268;48.188;17.134;2023-04-25T04:34:36;49650.72;;;-134.68
12409;BMP180;6268;48.188;17.134;2023-04-25T04:37:06;49648.78;;;-134.68
12409;BMP180;6268;48.188;17.134;2023-04-25T04:39:37;49650.72;;;-134.68
12409;BMP180;6268;48.188;17.134;2023-04-25T04:42:07;49648.78;;;-134.68
12409;BMP180;6268;48.188;17.134;2023-04-25T04:44:36;49646.84;;;-134.68
12409;BMP180;6268;48.188;17.134;2023-04-25T04:47:06;49650.72;;;-134.68
12409;BMP180;6268;48.188;17.134;2023-04-25T04:49:34;49648.78;;;-134.68
12409;BMP180;6268;48.188;17.134;2023-04-25T04:52:03;49650.72;;;-134.68
12409;BMP180;6268;48.188;17.134;2023-04-25T04:54:32;49648.78;;;-134.68
12409;BMP180;6268;48.188;17.134;2023-04-25T04:57:02;49650.72;;;-134.68
12409;BMP180;6268;48.188;17.134;2023-04-25T04:59:32;49648.78;;;-134.68
12409;BMP180;6268;48.188;17.134;2023-04-25T05:02:02;49648.78;;;-134.68
12409;BMP180;6268;48.188;17.134;2023-04-25T05:04:31;49648.78;;;-134.68
12409;BMP180;6268;48.188;17.134;2023-04-25T05:07:00;49646.84;;;-134.68
12409;BMP180;6268;48.188;17.134;2023-04-25T05:09:28;49650.72;;;-134.68
12409;BMP180;6268;48.188;17.134;2023-04-25T05:11:57;49650.72;;;-134.68
12409;BMP180;6268;48.188;17.134;2023-04-25T05:14:26;49650.72;;;-134.68
12409;BMP180;6268;48.188;17.134;2023-04-25T05:16:56;49650.72;;;-134.68
12409;BMP180;6268;48.188;17.134;2023-04-25T05:19:25;49650.72;;;-134.68
12409;BMP180;6268;48.188;17.134;2023-04-25T05:21:54;49646.84;;;-134.68
12409;BMP180;6268;48.188;17.134;2023-04-25T05:24:23;49648.78;;;-134.68
12409;BMP180;6268;48.188;17.134;2023-04-25T05:26:51;49644.88;;;-134.68
12409;BMP180;6268;48.188;17.134;2023-04-25T05:29:20;49646.84;;;-134.68
12409;BMP180;6268;48.188;17.134;2023-04-25T05:31:49;49648.78;;;-134.68
12409;BMP180;6268;48.188;17.134;2023-04-25T05:34:19;49650.72;;;-134.68
12409;BMP180;6268;48.188;17.134;2023-04-25T05:36:48;49648.78;;;-134.68
12409;BMP180;6268;48.188;17.134;2023-04-25T05:39:17;49646.84;;;-134.68
12409;BMP180;6268;48.188;17.134;2023-04-25T05:41:45;49648.78;;;-134.68
12409;BMP180;6268;48.188;17.134;2023-04-25T05:44:14;49650.72;;;-134.68
12409;BMP180;6268;48.188;17.134;2023-04-25T05:46:44;49648.78;;;-134.68
12409;BMP180;6268;48.188;17.134;2023-04-25T05:49:12;49650.72;;;-134.68
12409;BMP180;6268;48.188;17.134;2023-04-25T05:51:46;49650.72;;;-134.68
12409;BMP180;6268;48.188;17.134;2023-04-25T05:54:15;49650.72;;;-134.68
12409;BMP180;6268;48.188;17.134;2023-04-25T05:56:43;49648.78;;;-134.68
12409;BMP180;6268;48.188;17.134;2023-04-25T05:59:12;49650.72;;;-134.68
12409;BMP180;6268;48.188;17.134;2023-04-25T06:01:41;49650.72;;;-134.68
12409;BMP180;6268;48.188;17.134;2023-04-25T06:04:10;49652.66;;;-134.68
12409;BMP180;6268;48.188;17.134;2023-04-25T06:06:39;49646.84;;;-134.68
12409;BMP180;6268;48.188;17.134;2023-04-25T06:09:09;49650.72;;;-134.68
12409;BMP180;6268;48.188;17.134;2023-04-25T06:11:40;49652.66;;;-134.68
12409;BMP180;6268;48.188;17.134;2023-04-25T06:14:09;49650.72;;;-134.68
12409;BMP180;6268;48.188;17.134;2023-04-25T06:16:38;49650.72;;;-134.68
12409;BMP180;6268;48.188;17.134;2023-04-25T06:19:06;49646.84;;;-134.68
12409;BMP180;6268;48.188;17.134;2023-04-25T06:21:35;49648.78;;;-134.68
12409;BMP180;6268;48.188;17.134;2023-04-25T06:24:04;49646.84;;;-134.68
12409;BMP180;6268;48.188;17.134;2023-04-25T06:26:35;49650.72;;;-134.68
12409;BMP180;6268;48.188;17.134;2023-04-25T06:29:03;49650.72;;;-134.68
12409;BMP180;6268;48.188;17.134;2023-04-25T06:31:32;49646.84;;;-134.68
12409;BMP180;6268;48.188;17.134;2023-04-25T06:34:01;49646.84;;;-134.68
12409;BMP180;6268;48.188;17.134;2023-04-25T06:36:29;49648.78;;;-134.68
12409;BMP180;6268;48.188;17.134;2023-04-25T06:38:58;49650.72;;;-134.68
12409;BMP180;6268;48.188;17.134;2023-04-25T06:41:27;49650.72;;;-134.68
12409;BMP180;6268;48.188;17.134;2023-04-25T06:43:57;49650.72;;;-134.68
12409;BMP180;6268;48.188;17.134;2023-04-25T06:46:26;49652.66;;;-134.68
12409;BMP180;6268;48.188;17.134;2023-04-25T06:48:55;49652.66;;;-134.68
12409;BMP180;6268;48.188;17.134;2023-04-25T06:51:24;49650.72;;;-134.68
12409;BMP180;6268;48.188;17.134;2023-04-25T06:53:55;49652.66;;;-134.68
12409;BMP180;6268;48.188;17.134;2023-04-25T06:56:24;49650.72;;;-134.68
12409;BMP180;6268;48.188;17.134;2023-04-25T06:58:53;49650.72;;;-134.68
12409;BMP180;6268;48.188;17.134;2023-04-25T07:01:23;49654.59;;;-134.68
12409;BMP180;6268;48.188;17.134;2023-04-25T07:03:52;49652.66;;;-134.68
12409;BMP180;6268;48.188;17.134;2023-04-25T07:06:20;49652.66;;;-134.68
12409;BMP180;6268;48.188;17.134;2023-04-25T07:08:49;49654.59;;;-134.68
12409;BMP180;6268;48.188;17.134;2023-04-25T07:11:18;49650.72;;;-134.68
12409;BMP180;6268;48.188;17.134;2023-04-25T07:13:47;49654.59;;;-134.68
12409;BMP180;6268;48.188;17.134;2023-04-25T07:16:16;49652.66;;;-134.68
12409;BMP180;6268;48.188;17.134;2023-04-25T07:18:46;49652.66;;;-134.68
12409;BMP180;6268;48.188;17.134;2023-04-25T07:21:15;49652.66;;;-134.68
12409;BMP180;6268;48.188;17.134;2023-04-25T07:23:44;49654.59;;;-134.68
12409;BMP180;6268;48.188;17.134;2023-04-25T07:26:13;49652.66;;;-134.68
12409;BMP180;6268;48.188;17.134;2023-04-25T07:28:41;49656.53;;;-134.68
12409;BMP180;6268;48.188;17.134;2023-04-25T07:31:10;49650.72;;;-134.68
12409;BMP180;6268;48.188;17.134;2023-04-25T07:33:39;49650.72;;;-134.68
12409;BMP180;6268;48.188;17.134;2023-04-25T07:36:10;49652.66;;;-134.68
12409;BMP180;6268;48.188;17.134;2023-04-25T07:38:39;49654.59;;;-134.68
12409;BMP180;6268;48.188;17.134;2023-04-25T07:41:08;49654.59;;;-134.68
12409;BMP180;6268;48.188;17.134;2023-04-25T07:43:37;49650.72;;;-134.68
12409;BMP180;6268;48.188;17.134;2023-04-25T07:46:05;49654.59;;;-134.68
12409;BMP180;6268;48.188;17.134;2023-04-25T07:48:34;49652.66;;;-134.68
12409;BMP180;6268;48.188;17.134;2023-04-25T07:51:03;49654.59;;;-134.68
12409;BMP180;6268;48.188;17.134;2023-04-25T07:53:34;49652.66;;;-134.68
12409;BMP180;6268;48.188;17.134;2023-04-25T07:56:06;49654.59;;;-134.68
12409;BMP180;6268;48.188;17.134;2023-04-25T07:58:35;49654.59;;;-134.68
12409;BMP180;6268;48.188;17.134;2023-04-25T08:01:04;49654.59;;;-134.68
12409;BMP180;6268;48.188;17.134;2023-04-25T08:03:33;49650.72;;;-134.68
12409;BMP180;6268;48.188;17.134;2023-04-25T08:06:02;49652.66;;;-134.68
12409;BMP180;6268;48.188;17.134;2023-04-25T08:08:36;49652.66;;;-134.68
12409;BMP180;6268;48.188;17.134;2023-04-25T08:11:04;49650.72;;;-134.68
12409;BMP180;6268;48.188;17.134;2023-04-25T08:13:34;49654.59;;;-134.68
12409;BMP180;6268;48.188;17.134;2023-04-25T08:16:03;49654.59;;;-134.68
12409;BMP180;6268;48.188;17.134;2023-04-25T08:18:32;49656.53;;;-134.68
12409;BMP180;6268;48.188;17.134;2023-04-25T08:21:01;49654.59;;;-134.68
12409;BMP180;6268;48.188;17.134;2023-04-25T08:23:29;49654.59;;;-134.68
12409;BMP180;6268;48.188;17.134;2023-04-25T08:26:00;49654.59;;;-134.68
12409;BMP180;6268;48.188;17.134;2023-04-25T08:28:29;49654.59;;;-134.68
12409;BMP180;6268;48.188;17.134;2023-04-25T08:30:58;49654.59;;;-134.68
12409;BMP180;6268;48.188;17.134;2023-04-25T08:33:27;49656.53;;;-134.68
12409;BMP180;6268;48.188;17.134;2023-04-25T08:35:56;49652.66;;;-134.68
12409;BMP180;6268;48.188;17.134;2023-04-25T08:38:24;49654.59;;;-134.68
12409;BMP180;6268;48.188;17.134;2023-04-25T08:40:54;49654.59;;;-134.68
12409;BMP180;6268;48.188;17.134;2023-04-25T08:43:26;49654.59;;;-134.68
12409;BMP180;6268;48.188;17.134;2023-04-25T08:46:00;49654.59;;;-134.68
12409;BMP180;6268;48.188;17.134;2023-04-25T08:48:33;49652.66;;;-134.68
12409;BMP180;6268;48.188;17.134;2023-04-25T08:51:05;49654.59;;;-134.68
12409;BMP180;6268;48.188;17.134;2023-04-25T08:53:39;49656.53;;;-134.68
12409;BMP180;6268;48.188;17.134;2023-04-25T08:56:12;49656.53;;;-134.68
12409;BMP180;6268;48.188;17.134;2023-04-25T08:58:43;49654.59;;;-134.68
12409;BMP180;6268;48.188;17.134;2023-04-25T09:01:13;49654.59;;;-134.68
12409;BMP180;6268;48.188;17.134;2023-04-25T09:03:42;49656.53;;;-134.68
12409;BMP180;6268;48.188;17.134;2023-04-25T09:06:12;49654.59;;;-134.68
12409;BMP180;6268;48.188;17.134;2023-04-25T09:08:41;49654.59;;;-134.68
12409;BMP180;6268;48.188;17.134;2023-04-25T09:11:10;49652.66;;;-134.68
12409;BMP180;6268;48.188;17.134;2023-04-25T09:13:39;49656.53;;;-134.68
12409;BMP180;6268;48.188;17.134;2023-04-25T09:16:09;49654.59;;;-134.68
12409;BMP180;6268;48.188;17.134;2023-04-25T09:18:38;49654.59;;;-134.68
12409;BMP180;6268;48.188;17.134;2023-04-25T09:21:14;49652.66;;;-134.68
12409;BMP180;6268;48.188;17.134;2023-04-25T09:23:46;49652.66;;;-134.68
12409;BMP180;6268;48.188;17.134;2023-04-25T09:26:18;49654.59;;;-134.68
12409;BMP180;6268;48.188;17.134;2023-04-25T09:28:47;49652.66;;;-134.68
12409;BMP180;6268;48.188;17.134;2023-04-25T09:31:23;49654.59;;;-134.68
12409;BMP180;6268;48.188;17.134;2023-04-25T09:33:59;49652.66;;;-134.68
12409;BMP180;6268;48.188;17.134;2023-04-25T09:36:30;49654.59;;;-134.68
12409;BMP180;6268;48.188;17.134;2023-04-25T09:39:00;49656.53;;;-134.68
12409;BMP180;6268;48.188;17.134;2023-04-25T09:41:30;49656.53;;;-134.68
12409;BMP180;6268;48.188;17.134;2023-04-25T09:44:00;49654.59;;;-134.68
12409;BMP180;6268;48.188;17.134;2023-04-25T09:46:34;49654.59;;;-134.68
12409;BMP180;6268;48.188;17.134;2023-04-25T09:49:07;49654.59;;;-134.68
12409;BMP180;6268;48.188;17.134;2023-04-25T09:51:36;49654.59;;;-134.68
12409;BMP180;6268;48.188;17.134;2023-04-25T09:54:05;49654.59;;;-134.68
12409;BMP180;6268;48.188;17.134;2023-04-25T09:56:36;49652.66;;;-134.68
12409;BMP180;6268;48.188;17.134;2023-04-25T09:59:07;49654.59;;;-134.68
12409;BMP180;6268;48.188;17.134;2023-04-25T10:01:40;49654.59;;;-134.68
12409;BMP180;6268;48.188;17.134;2023-04-25T10:04:11;49656.53;;;-134.68
12409;BMP180;6268;48.188;17.134;2023-04-25T10:06:42;49652.66;;;-134.68
12409;BMP180;6268;48.188;17.134;2023-04-25T10:09:12;49654.59;;;-134.68
12409;BMP180;6268;48.188;17.134;2023-04-25T10:11:42;49654.59;;;-134.68
12409;BMP180;6268;48.188;17.134;2023-04-25T10:14:13;49652.66;;;-134.68
12409;BMP180;6268;48.188;17.134;2023-04-25T10:16:43;49654.59;;;-134.68
12409;BMP180;6268;48.188;17.134;2023-04-25T10:19:12;49654.59;;;-134.68
12409;BMP180;6268;48.188;17.134;2023-04-25T10:21:51;49654.59;;;-134.68
12409;BMP180;6268;48.188;17.134;2023-04-25T10:24:20;49654.59;;;-134.68
12409;BMP180;6268;48.188;17.134;2023-04-25T10:26:51;49654.59;;;-134.68
12409;BMP180;6268;48.188;17.134;2023-04-25T10:29:24;49656.53;;;-134.68
12409;BMP180;6268;48.188;17.134;2023-04-25T10:31:55;49656.53;;;-134.68
12409;BMP180;6268;48.188;17.134;2023-04-25T10:34:39;49652.66;;;-134.68
12409;BMP180;6268;48.188;17.134;2023-04-25T10:37:11;49654.59;;;-134.68
12409;BMP180;6268;48.188;17.134;2023-04-25T10:39:41;49652.66;;;-134.68
12409;BMP180;6268;48.188;17.134;2023-04-25T10:42:12;49652.66;;;-134.68
12409;BMP180;6268;48.188;17.134;2023-04-25T10:44:40;49650.72;;;-134.68
12409;BMP180;6268;48.188;17.134;2023-04-25T10:47:36;49650.72;;;-134.68
12409;BMP180;6268;48.188;17.134;2023-04-25T10:50:08;49652.66;;;-134.68
12409;BMP180;6268;48.188;17.134;2023-04-25T10:52:39;49654.59;;;-134.68
12409;BMP180;6268;48.188;17.134;2023-04-25T10:55:08;49654.59;;;-134.68
12409;BMP180;6268;48.188;17.134;2023-04-25T10:57:40;49650.72;;;-134.68
12409;BMP180;6268;48.188;17.134;2023-04-25T11:00:12;49650.72;;;-134.68
12409;BMP180;6268;48.188;17.134;2023-04-25T11:02:47;49652.66;;;-134.68
12409;BMP180;6268;48.188;17.134;2023-04-25T11:05:28;49652.66;;;-134.68
12409;BMP180;6268;48.188;17.134;2023-04-25T11:07:59;49650.72;;;-134.68
12409;BMP180;6268;48.188;17.134;2023-04-25T11:10:34;49650.72;;;-134.68
12409;BMP180;6268;48.188;17.134;2023-04-25T11:13:04;49650.72;;;-134.68
12409;BMP180;6268;48.188;17.134;2023-04-25T11:15:32;49650.72;;;-134.68
12409;BMP180;6268;48.188;17.134;2023-04-25T11:18:03;49650.72;;;-134.68
12409;BMP180;6268;48.188;17.134;2023-04-25T11:20:32;49652.66;;;-134.68
12409;BMP180;6268;48.188;17.134;2023-04-25T11:23:00;49652.66;;;-134.68
12409;BMP180;6268;48.188;17.134;2023-04-25T11:25:30;49652.66;;;-134.68
12409;BMP180;6268;48.188;17.134;2023-04-25T11:28:01;49650.72;;;-134.68
12409;BMP180;6268;48.188;17.134;2023-04-25T11:30:30;49650.72;;;-134.68
12409;BMP180;6268;48.188;17.134;2023-04-25T11:32:58;49652.66;;;-134.68
12409;BMP180;6268;48.188;17.134;2023-04-25T11:35:29;49652.66;;;-134.68
12409;BMP180;6268;48.188;17.134;2023-04-25T11:37:57;49652.66;;;-134.68
12409;BMP180;6268;48.188;17.134;2023-04-25T11:40:26;49654.59;;;-134.68
12409;BMP180;6268;48.188;17.134;2023-04-25T11:42:55;49652.66;;;-134.68
12409;BMP180;6268;48.188;17.134;2023-04-25T11:45:24;49650.72;;;-134.68
12409;BMP180;6268;48.188;17.134;2023-04-25T11:47:53;49650.72;;;-134.68
12409;BMP180;6268;48.188;17.134;2023-04-25T11:50:22;49648.78;;;-134.68
12409;BMP180;6268;48.188;17.134;2023-04-25T11:52:56;49648.78;;;-134.68
12409;BMP180;6268;48.188;17.134;2023-04-25T11:55:25;49648.78;;;-134.68
12409;BMP180;6268;48.188;17.134;2023-04-25T11:57:54;49650.72;;;-134.68
12409;BMP180;6268;48.188;17.134;2023-04-25T12:00:24;49650.72;;;-134.68
12409;BMP180;6268;48.188;17.134;2023-04-25T12:02:55;49652.66;;;-134.68
12409;BMP180;6268;48.188;17.134;2023-04-25T12:05:28;49650.72;;;-134.68
12409;BMP180;6268;48.188;17.134;2023-04-25T12:08:12;49650.72;;;-134.68
12409;BMP180;6268;48.188;17.134;2023-04-25T12:10:45;49650.72;;;-134.68
12409;BMP180;6268;48.188;17.134;2023-04-25T12:13:21;49650.72;;;-134.68
12409;BMP180;6268;48.188;17.134;2023-04-25T12:15:51;49654.59;;;-134.68
12409;BMP180;6268;48.188;17.134;2023-04-25T12:18:20;49650.72;;;-134.68
12409;BMP180;6268;48.188;17.134;2023-04-25T12:20:49;49650.72;;;-134.68
12409;BMP180;6268;48.188;17.134;2023-04-25T12:23:26;49646.84;;;-134.68
12409;BMP180;6268;48.188;17.134;2023-04-25T12:25:56;49650.72;;;-134.68
12409;BMP180;6268;48.188;17.134;2023-04-25T12:28:25;49650.72;;;-134.68
12409;BMP180;6268;48.188;17.134;2023-04-25T12:30:57;49650.72;;;-134.68
12409;BMP180;6268;48.188;17.134;2023-04-25T12:33:28;49648.78;;;-134.68
12409;BMP180;6268;48.188;17.134;2023-04-25T12:35:58;49650.72;;;-134.68
12409;BMP180;6268;48.188;17.134;2023-04-25T12:38:37;49648.78;;;-134.68
12409;BMP180;6268;48.188;17.134;2023-04-25T12:41:07;49650.72;;;-134.68
12409;BMP180;6268;48.188;17.134;2023-04-25T12:43:36;49650.72;;;-134.68
12409;BMP180;6268;48.188;17.134;2023-04-25T12:46:05;49650.72;;;-134.68
12409;BMP180;6268;48.188;17.134;2023-04-25T12:48:34;49650.72;;;-134.68
12409;BMP180;6268;48.188;17.134;2023-04-25T12:51:03;49652.66;;;-134.68
12409;BMP180;6268;48.188;17.134;2023-04-25T12:53:33;49648.78;;;-134.68
12409;BMP180;6268;48.188;17.134;2023-04-25T12:56:06;49650.72;;;-134.68
12409;BMP180;6268;48.188;17.134;2023-04-25T12:58:34;49650.72;;;-134.68
12409;BMP180;6268;48.188;17.134;2023-04-25T13:01:03;49650.72;;;-134.68
12409;BMP180;6268;48.188;17.134;2023-04-25T13:03:32;49648.78;;;-134.68
12409;BMP180;6268;48.188;17.134;2023-04-25T13:06:01;49652.66;;;-134.68
12409;BMP180;6268;48.188;17.134;2023-04-25T13:08:30;49650.72;;;-134.68
12409;BMP180;6268;48.188;17.134;2023-04-25T13:11:00;49652.66;;;-134.68
12409;BMP180;6268;48.188;17.134;2023-04-25T13:13:29;49652.66;;;-134.68
12409;BMP180;6268;48.188;17.134;2023-04-25T13:15:58;49650.72;;;-134.68
12409;BMP180;6268;48.188;17.134;2023-04-25T13:18:27;49650.72;;;-134.68
12409;BMP180;6268;48.188;17.134;2023-04-25T13:20:56;49648.78;;;-134.68
12409;BMP180;6268;48.188;17.134;2023-04-25T13:23:29;49652.66;;;-134.68
12409;BMP180;6268;48.188;17.134;2023-04-25T13:25:59;49650.72;;;-134.68
12409;BMP180;6268;48.188;17.134;2023-04-25T13:28:28;49652.66;;;-134.68
12409;BMP180;6268;48.188;17.134;2023-04-25T13:30:57;49652.66;;;-134.68
12409;BMP180;6268;48.188;17.134;2023-04-25T13:33:26;49652.66;;;-134.68
12409;BMP180;6268;48.188;17.134;2023-04-25T13:35:55;49650.72;;;-134.68
12409;BMP180;6268;48.188;17.134;2023-04-25T13:38:25;49646.84;;;-134.68
12409;BMP180;6268;48.188;17.134;2023-04-25T13:40:54;49650.72;;;-134.68
12409;BMP180;6268;48.188;17.134;2023-04-25T13:43:24;49650.72;;;-134.68
12409;BMP180;6268;48.188;17.134;2023-04-25T13:45:53;49650.72;;;-134.68
12409;BMP180;6268;48.188;17.134;2023-04-25T13:48:23;49652.66;;;-134.68
12409;BMP180;6268;48.188;17.134;2023-04-25T13:50:52;49650.72;;;-134.68
12409;BMP180;6268;48.188;17.134;2023-04-25T13:53:21;49648.78;;;-134.68
12409;BMP180;6268;48.188;17.134;2023-04-25T13:55:50;49648.78;;;-134.68
12409;BMP180;6268;48.188;17.134;2023-04-25T13:58:20;49648.78;;;-134.68